Portada
METAR-TAF:

METAR-TAF

Aeroports :

Nova Delhi, Índia

latitud: 28-34N, longitud: 077-07E, altitud: 220 m

Observació

L'informe es va fer fa 20 minuts, a les 20:00 UTC
Vent calma
Temperatura 9°C
Humitat 93%
Pressió 1017 hPa
Visibilitat: 0150 m
Escasses núvols a una alçada de 10000 ft
boira

METAR: VIDP 262000Z 00000KT 0150 R28/1400 R29/0500 FG FEW100 09/08 Q1017 NOSIG

Hora: 01:50 (20:20 UTC)

Pronòstic

L'informe es va fer fa 3 hores i 19 minuts, a les 17:01 UTC
Pronòstic vàlid del 26 a les 18 UTC al 27 a les 03 UTC
Vent 2 kt amb direcció variable
Visibilitat: 0800 m
Escasses núvols a una alçada de 10000 ft
Boira superficial
Evolucionant progressivament
l' 26 a les 21 UTC al 26 a les 23 UTC
Visibilitat: 0300 m
boira
Evolucionant progressivament
l' 27 a les 01 UTC al 27 a les 03 UTC
Vent 4 kt del Sud-Oest
Visibilitat: 0500 m
Boira superficial

TAF: VIDP 261701Z 2618/2703 VRB02KT 0800 MIFG FEW100 BECMG 2621/2623 0300 FG VV/// BECMG 2701/2703 23004KT 0500 MIFG NSC

Observacions i pronòstics meteorològics de més de 4000 aeroports (METAR i TAF).

Les estacions disponibles són els punts grocs i vermells al mapa.

Posi el ratolí al punt desitjat per veure el nom de l'estació.

Feu clic per veure les observacions i els pronòstics meteorològics.

Per canviar el mapa: feu clic els botons verds amb una creu de color negre per apropar; al botó verd amb un guió per allunyar la imatge; o en les fletxes verdes per a mapes adjacents.


METAR-TAF: